Time;durP1;ratioP1;P1;durP2;ratioP2;P2;SDS_P1;SDS_P2;PMS_P1;PMS_P2;Temp;Humidity;BMP_temperature;BMP_pressure;BME280_temperature;BME280_humidity;BME280_pressure;Samples;Min_cycle;Max_cycle;Signal;HPM_P1;HPM_P2
2022/08/22 00:00:48;;;;;;;9.55;4.05;;;;;;;18.02;72.00;101552.75;4929786;29;20437;-75
2022/08/22 00:03:38;;;;;;;13.55;4.43;;;;;;;17.94;72.28;101543.03;4929620;29;20032;-76
2022/08/22 00:06:20;;;;;;;9.50;4.00;;;;;;;18.00;72.31;101552.06;4924217;29;20063;-76
2022/08/22 00:09:17;;;;;;;10.75;4.25;;;;;;;18.04;71.90;101554.22;4928407;29;20157;-75
2022/08/22 00:12:05;;;;;;;8.18;4.07;;;;;;;17.89;73.16;101558.44;5016140;28;20550;-75
2022/08/22 00:14:57;;;;;;;9.70;4.15;;;;;;;18.01;72.44;101559.81;5006468;28;20037;-75
2022/08/22 00:17:38;;;;;;;9.52;4.25;;;;;;;17.89;72.83;101558.44;5006247;28;20030;-75
2022/08/22 00:20:22;;;;;;;10.65;4.50;;;;;;;17.92;72.77;101552.03;5005306;28;20021;-75
2022/08/22 00:22:57;;;;;;;11.00;4.45;;;;;;;17.76;73.25;101550.13;5006414;28;20034;-75
2022/08/22 00:25:57;;;;;;;9.57;4.28;;;;;;;17.89;72.45;101554.97;4987344;28;20498;-75
2022/08/22 00:28:37;;;;;;;11.27;4.25;;;;;;;17.90;72.14;101552.19;4992635;28;20032;-77
2022/08/22 00:31:20;;;;;;;9.68;4.15;;;;;;;17.90;72.37;101557.44;4996413;28;20473;-75
2022/08/22 00:33:52;;;;;;;8.63;3.97;;;;;;;17.78;73.25;101553.44;5012133;28;20029;-76
2022/08/22 00:36:24;;;;;;;9.00;4.10;;;;;;;17.72;73.44;101551.41;4997734;28;20029;-76
2022/08/22 00:39:02;;;;;;;7.70;3.65;;;;;;;17.69;73.67;101555.16;5008758;28;20034;-76
2022/08/22 00:41:43;;;;;;;11.23;4.25;;;;;;;17.60;74.62;101555.22;5012417;28;20037;-76
2022/08/22 00:44:45;;;;;;;10.68;4.30;;;;;;;17.77;73.93;101557.03;4977702;28;20105;-76
2022/08/22 00:47:35;;;;;;;10.23;4.32;;;;;;;17.73;74.34;101558.31;5007151;28;20080;-76
2022/08/22 00:50:22;;;;;;;11.00;4.25;;;;;;;17.78;73.93;101558.69;4997527;28;20096;-75
2022/08/22 00:53:01;;;;;;;8.57;4.10;;;;;;;17.76;74.05;101556.19;5004437;28;20026;-76
2022/08/22 00:55:36;;;;;;;10.18;3.92;;;;;;;17.74;73.98;101557.34;5001043;28;20474;-76
2022/08/22 00:58:32;;;;;;;8.77;3.90;;;;;;;17.72;74.29;101554.03;5015238;28;20029;-76
2022/08/22 01:01:04;;;;;;;10.50;4.28;;;;;;;17.71;74.08;101557.59;4996481;28;20047;-76
2022/08/22 01:03:48;;;;;;;9.27;3.80;;;;;;;17.81;73.85;101566.25;5005682;28;20030;-76
2022/08/22 01:06:19;;;;;;;10.27;4.18;;;;;;;17.76;74.12;101565.88;4988004;28;20041;-75
2022/08/22 01:09:03;;;;;;;8.27;4.22;;;;;;;17.75;74.05;101569.47;4997454;28;20033;-76
2022/08/22 01:11:51;;;;;;;11.65;4.20;;;;;;;17.75;74.45;101559.00;5004702;28;20088;-75
2022/08/22 01:14:39;;;;;;;9.00;4.13;;;;;;;17.70;74.43;101566.47;4982702;28;20032;-75
2022/08/22 01:17:18;;;;;;;11.80;4.20;;;;;;;17.68;74.89;101568.44;5002577;28;20037;-75
2022/08/22 01:20:14;;;;;;;11.10;3.90;;;;;;;17.77;74.25;101572.75;4996778;28;20462;-75
2022/08/22 01:23:13;;;;;;;10.32;4.10;;;;;;;17.67;74.74;101566.78;5002996;28;20044;-76
2022/08/22 01:26:04;;;;;;;11.00;4.15;;;;;;;17.64;75.03;101561.81;4998336;28;20087;-76
2022/08/22 01:28:54;;;;;;;9.48;4.13;;;;;;;17.52;75.04;101564.69;5015634;28;20104;-76
2022/08/22 01:31:34;;;;;;;9.60;4.10;;;;;;;17.65;74.54;101563.47;5010598;28;20026;-76
2022/08/22 01:34:11;;;;;;;11.85;4.63;;;;;;;17.58;74.79;101567.69;4996571;28;20485;-75
2022/08/22 01:37:14;;;;;;;13.68;4.95;;;;;;;17.63;74.28;101565.44;4999414;28;20034;-75
2022/08/22 01:40:07;;;;;;;10.70;4.38;;;;;;;17.62;74.16;101571.66;4996904;28;20250;-76
2022/08/22 01:43:08;;;;;;;11.43;4.47;;;;;;;17.64;74.40;101567.06;4998840;28;20092;-75
2022/08/22 01:46:11;;;;;;;9.02;4.50;;;;;;;17.63;74.30;101570.69;4990270;28;20034;-76
2022/08/22 01:48:37;;;;;;;10.15;4.50;;;;;;;17.64;74.26;101564.44;5009949;28;20041;-76
2022/08/22 01:51:15;;;;;;;10.52;4.60;;;;;;;17.60;75.27;101565.72;4996805;28;20030;-75
2022/08/22 01:53:57;;;;;;;10.52;4.50;;;;;;;17.65;74.93;101560.84;4980998;28;20389;-76
2022/08/22 01:56:24;;;;;;;10.95;4.32;;;;;;;17.60;74.80;101563.09;5000685;28;20030;-75
2022/08/22 01:59:07;;;;;;;9.37;3.50;;;;;;;17.65;75.07;101568.72;4998832;28;20479;-75
2022/08/22 02:01:56;;;;;;;9.23;3.80;;;;;;;17.63;75.31;101560.19;5010463;28;20304;-75
2022/08/22 02:04:55;;;;;;;10.43;4.25;;;;;;;17.60;75.59;101558.69;5004577;28;20029;-75
2022/08/22 02:08:05;;;;;;;9.05;4.40;;;;;;;17.66;75.14;101549.38;5008198;28;20037;-76
2022/08/22 02:10:43;;;;;;;10.70;4.78;;;;;;;17.62;75.21;101537.56;4988820;28;20097;-76
2022/08/22 02:13:34;;;;;;;9.93;4.10;;;;;;;17.56;75.63;101538.19;4992983;28;20052;-76
2022/08/22 02:16:07;;;;;;;10.55;4.47;;;;;;;17.44;75.90;101546.28;5006740;28;20072;-75
2022/08/22 02:19:10;;;;;;;10.25;4.60;;;;;;;17.56;75.38;101538.19;5001156;28;20148;-75
2022/08/22 02:21:46;;;;;;;11.93;4.50;;;;;;;17.45;76.03;101547.94;4996984;28;20025;-75
2022/08/22 02:24:28;;;;;;;8.88;4.47;;;;;;;17.43;76.64;101542.03;4996338;28;20080;-76
2022/08/22 02:27:32;;;;;;;11.10;4.60;;;;;;;17.46;76.32;101539.06;5007578;28;20409;-76
2022/08/22 02:30:10;;;;;;;10.30;4.45;;;;;;;17.30;77.21;101530.25;5002310;28;20080;-76
2022/08/22 02:32:38;;;;;;;10.25;4.30;;;;;;;17.37;76.87;101532.13;4995572;28;20026;-77
2022/08/22 02:35:48;;;;;;;12.75;4.78;;;;;;;17.42;76.42;101537.72;5016088;28;20034;-75
2022/08/22 02:38:32;;;;;;;11.02;4.60;;;;;;;17.36;77.14;101538.34;5016888;28;20112;-76
2022/08/22 02:41:26;;;;;;;10.38;4.57;;;;;;;17.36;76.89;101537.53;5000716;28;20034;-75
2022/08/22 02:44:19;;;;;;;10.63;4.40;;;;;;;17.42;76.85;101537.72;5010161;28;20057;-75
2022/08/22 02:47:02;;;;;;;10.23;4.13;;;;;;;17.42;77.07;101532.47;4985945;28;20478;-75
2022/08/22 02:49:42;;;;;;;10.57;4.93;;;;;;;17.35;77.17;101536.69;5004336;28;20068;-75
2022/08/22 02:52:24;;;;;;;10.88;4.72;;;;;;;17.34;77.23;101529.81;4995713;28;20088;-76
2022/08/22 02:55:12;;;;;;;12.68;5.05;;;;;;;17.38;77.53;101533.78;5001574;28;20022;-75
2022/08/22 02:57:58;;;;;;;10.90;4.65;;;;;;;17.35;77.72;101531.44;4991900;28;20027;-76
2022/08/22 03:00:39;;;;;;;9.35;4.40;;;;;;;17.41;77.40;101533.47;4988670;28;20143;-76
2022/08/22 03:03:15;;;;;;;10.00;4.78;;;;;;;17.38;77.54;101536.41;5002623;28;20045;-76
2022/08/22 03:05:43;;;;;;;10.43;4.40;;;;;;;17.36;78.05;101533.09;5000767;28;20033;-75
2022/08/22 03:08:27;;;;;;;12.63;4.47;;;;;;;17.35;78.19;101528.84;5005508;28;20025;-75
2022/08/22 03:11:17;;;;;;;11.23;4.85;;;;;;;17.33;78.32;101528.16;4999251;28;20022;-76
2022/08/22 03:13:54;;;;;;;9.98;4.88;;;;;;;17.29;78.43;101526.81;4998210;28;20033;-76
2022/08/22 03:17:05;;;;;;;11.97;5.10;;;;;;;17.37;78.00;101526.88;5003831;28;20026;-76
2022/08/22 03:19:59;;;;;;;10.65;4.80;;;;;;;17.25;78.75;101530.72;5000159;28;20384;-76
2022/08/22 03:22:43;;;;;;;10.65;4.93;;;;;;;17.14;79.45;101526.53;4995899;28;20109;-76
2022/08/22 03:25:36;;;;;;;9.70;4.53;;;;;;;17.25;78.66;101522.84;5006864;28;20053;-75
2022/08/22 03:28:10;;;;;;;11.57;5.30;;;;;;;17.19;78.90;101523.44;5006882;28;20029;-76
2022/08/22 03:31:03;;;;;;;11.18;5.35;;;;;;;17.22;78.75;101515.28;4999811;28;20044;-76
2022/08/22 03:33:30;;;;;;;9.55;4.88;;;;;;;17.23;78.80;101519.56;4991061;28;20046;-76
2022/08/22 03:36:11;;;;;;;11.45;5.07;;;;;;;17.24;78.64;101516.78;5018230;28;20037;-75
2022/08/22 03:39:04;;;;;;;12.90;5.05;;;;;;;17.28;78.55;101525.19;5013181;28;20030;-76
2022/08/22 03:41:38;;;;;;;11.15;4.72;;;;;;;17.18;79.06;101519.19;5005497;28;20038;-76
2022/08/22 03:44:34;;;;;;;12.38;5.28;;;;;;;17.21;79.04;101513.66;5004356;28;20029;-76
2022/08/22 03:47:15;;;;;;;9.85;4.78;;;;;;;17.13;79.83;101513.56;5007516;28;20037;-76
2022/08/22 03:50:14;;;;;;;10.52;4.90;;;;;;;17.15;79.66;101503.78;5014938;28;20040;-75
2022/08/22 03:53:07;;;;;;;12.82;5.50;;;;;;;17.12;80.00;101502.28;5008892;28;20033;-75
2022/08/22 03:55:32;;;;;;;10.10;5.18;;;;;;;17.07;79.66;101501.06;4997460;28;20388;-75
2022/08/22 03:58:31;;;;;;;12.38;5.50;;;;;;;16.99;80.15;101494.78;5010477;28;20033;-76
2022/08/22 04:01:18;;;;;;;13.30;5.88;;;;;;;17.09;79.38;101499.13;5013717;28;20052;-76
2022/08/22 04:03:58;;;;;;;10.98;5.32;;;;;;;17.14;78.97;101504.72;5011571;28;20525;-77
2022/08/22 04:06:37;;;;;;;13.38;5.80;;;;;;;17.09;79.60;101509.59;4994261;28;20034;-76
2022/08/22 04:09:25;;;;;;;10.63;5.65;;;;;;;17.03;80.00;101499.72;4987314;28;20321;-76
2022/08/22 04:12:12;;;;;;;11.43;5.82;;;;;;;17.02;80.09;101504.13;4998640;28;20026;-76
2022/08/22 04:15:16;;;;;;;11.20;5.25;;;;;;;17.09;79.53;101509.59;4999416;28;20033;-76
2022/08/22 04:18:00;;;;;;;11.77;5.78;;;;;;;17.02;79.71;101503.31;4991506;28;20074;-76
2022/08/22 04:21:03;;;;;;;11.32;5.40;;;;;;;17.03;79.95;101507.59;4992147;28;20039;-76
2022/08/22 04:23:43;;;;;;;9.70;5.20;;;;;;;16.83;80.05;101515.59;4991590;28;20109;-75
2022/08/22 04:26:16;;;;;;;11.73;6.03;;;;;;;16.85;80.27;101505.78;4999433;28;20060;-76
2022/08/22 04:28:51;;;;;;;10.85;4.93;;;;;;;16.96;80.02;101516.03;4998288;28;20034;-76
2022/08/22 04:31:24;;;;;;;13.25;6.32;;;;;;;16.82;81.04;101518.38;4995976;28;20462;-76
2022/08/22 04:34:05;;;;;;;11.63;5.65;;;;;;;16.95;79.96;101519.66;5020595;28;20025;-76
2022/08/22 04:36:39;;;;;;;12.43;5.60;;;;;;;16.86;80.55;101522.31;5001120;28;20066;-76
2022/08/22 04:39:17;;;;;;;11.63;5.75;;;;;;;16.89;80.70;101525.47;4991788;28;20060;-76
2022/08/22 04:41:58;;;;;;;14.30;6.50;;;;;;;16.81;81.35;101528.03;4985028;28;20057;-76
2022/08/22 04:44:34;;;;;;;10.25;5.75;;;;;;;16.84;81.37;101517.25;5012818;28;20034;-76
2022/08/22 04:47:28;;;;;;;13.38;6.22;;;;;;;16.92;81.08;101524.38;5004082;28;20033;-76
2022/08/22 04:50:13;;;;;;;12.23;6.05;;;;;;;16.93;81.05;101521.59;5014478;28;20477;-75
2022/08/22 04:53:17;;;;;;;12.75;5.90;;;;;;;16.94;80.66;101522.41;4995599;28;20491;-75
2022/08/22 04:56:04;;;;;;;13.05;6.50;;;;;;;16.74;81.84;101521.72;4990849;28;20053;-75
2022/08/22 04:58:40;;;;;;;12.75;6.28;;;;;;;16.81;81.62;101517.56;4990538;28;20041;-76
2022/08/22 05:01:05;;;;;;;13.63;6.15;;;;;;;16.87;81.03;101522.19;4990035;28;20050;-75
2022/08/22 05:03:35;;;;;;;11.85;5.97;;;;;;;16.82;81.76;101529.69;5005216;28;20038;-75
2022/08/22 05:06:04;;;;;;;13.40;6.60;;;;;;;16.83;81.80;101531.31;5008062;28;20067;-75
2022/08/22 05:08:32;;;;;;;;;;;;;;;17.08;79.80;101534.16;4996336;28;20038;-75
2022/08/22 05:10:59;;;;;;;12.45;6.38;;;;;;;16.85;81.93;101532.00;5003570;28;19913;-75
2022/08/22 05:13:38;;;;;;;11.70;6.70;;;;;;;16.85;81.57;101539.84;5002714;28;20038;-75
2022/08/22 05:16:13;;;;;;;12.57;6.75;;;;;;;16.86;81.73;101536.28;4995573;28;20660;-75
2022/08/22 05:18:46;;;;;;;12.35;6.35;;;;;;;16.84;82.04;101538.19;5008039;28;20090;-75
2022/08/22 05:21:16;;;;;;;14.02;7.05;;;;;;;16.83;81.81;101535.75;4998133;28;20476;-75
2022/08/22 05:23:50;;;;;;;11.55;6.50;;;;;;;16.89;81.59;101530.72;5000975;28;20374;-75
2022/08/22 05:26:18;;;;;;;13.60;6.90;;;;;;;16.86;81.98;101531.03;4993674;28;20022;-75
2022/08/22 05:28:53;;;;;;;12.52;7.38;;;;;;;16.87;81.92;101522.19;4999943;28;20415;-75
2022/08/22 05:31:36;;;;;;;12.05;6.68;;;;;;;17.04;80.67;101538.09;5003827;28;20026;-75
2022/08/22 05:34:11;;;;;;;11.55;6.60;;;;;;;17.01;81.40;101548.84;5002871;28;20496;-75
2022/08/22 05:36:44;;;;;;;13.32;7.30;;;;;;;17.02;81.01;101550.50;5006463;28;20030;-75
2022/08/22 05:39:25;;;;;;;13.25;6.72;;;;;;;17.02;81.19;101551.31;5009375;28;20029;-75
2022/08/22 05:41:54;;;;;;;12.93;7.32;;;;;;;16.98;80.78;101552.59;4989538;28;20445;-76
2022/08/22 05:44:24;;;;;;;12.43;7.68;;;;;;;17.01;81.36;101559.34;5014529;28;20481;-76
2022/08/22 05:47:03;;;;;;;13.40;7.20;;;;;;;17.06;81.30;101562.34;5006932;28;20038;-75
2022/08/22 05:49:47;;;;;;;13.90;7.32;;;;;;;16.99;82.12;101555.06;4997876;28;20022;-75
2022/08/22 05:53:01;;;;;;;13.43;7.45;;;;;;;17.12;81.80;101551.25;4996738;28;20029;-76
2022/08/22 05:55:50;;;;;;;12.13;7.32;;;;;;;17.08;82.87;101560.38;4981664;28;20030;-75
2022/08/22 05:58:42;;;;;;;12.18;7.28;;;;;;;17.15;82.18;101558.81;5007571;28;20059;-75
2022/08/22 06:01:26;;;;;;;12.63;7.72;;;;;;;17.17;81.96;101549.81;4998175;28;20046;-76
2022/08/22 06:04:06;;;;;;;14.60;7.97;;;;;;;17.15;81.76;101556.22;5010236;28;20482;-75
2022/08/22 06:06:50;;;;;;;13.98;7.97;;;;;;;17.21;81.99;101555.59;4991066;28;20057;-75
2022/08/22 06:09:22;;;;;;;15.05;8.18;;;;;;;17.16;81.75;101556.03;5004657;28;20036;-76
2022/08/22 06:11:58;;;;;;;14.77;7.90;;;;;;;17.16;82.59;101557.84;4993983;28;20470;-75
2022/08/22 06:14:27;;;;;;;13.45;7.97;;;;;;;17.21;82.10;101560.84;4998395;28;20033;-75
2022/08/22 06:17:03;;;;;;;12.55;7.88;;;;;;;17.24;81.76;101561.34;4996377;28;20031;-75
2022/08/22 06:19:31;;;;;;;13.88;8.10;;;;;;;17.25;82.24;101563.00;5009939;28;20666;-76
2022/08/22 06:21:57;;;;;;;15.68;8.68;;;;;;;17.32;81.76;101551.91;5002471;28;20249;-76
2022/08/22 06:24:25;;;;;;;14.27;8.25;;;;;;;17.32;81.47;101563.25;5001567;28;20041;-76
2022/08/22 06:26:52;;;;;;;12.80;8.38;;;;;;;17.30;81.74;101573.03;5000702;28;20837;-75
2022/08/22 06:29:41;;;;;;;13.90;8.87;;;;;;;17.40;81.70;101571.16;5007850;28;20104;-75
2022/08/22 06:32:28;;;;;;;15.30;10.35;;;;;;;17.28;81.68;101538.28;5005594;28;20029;-76
2022/08/22 06:35:02;;;;;;;13.85;10.65;;;;;;;17.31;82.05;101572.06;5000231;28;20091;-76
2022/08/22 06:37:35;;;;;;;14.98;10.98;;;;;;;17.38;81.76;101570.50;5009679;28;20033;-76
2022/08/22 06:40:05;;;;;;;14.57;11.30;;;;;;;17.36;81.38;101572.44;5008248;28;20473;-76
2022/08/22 06:42:32;;;;;;;16.85;11.30;;;;;;;17.45;81.00;101579.41;4996682;28;20031;-76
2022/08/22 06:45:07;;;;;;;15.93;11.33;;;;;;;17.46;81.52;101586.28;5005470;28;20038;-76
2022/08/22 06:47:38;;;;;;;16.08;11.75;;;;;;;17.46;81.76;101583.66;4997912;28;20438;-76
2022/08/22 06:50:13;;;;;;;14.25;11.05;;;;;;;17.47;81.29;101577.44;5006077;28;20026;-76
2022/08/22 06:52:58;;;;;;;15.10;10.65;;;;;;;17.56;81.04;101586.22;4993711;28;20030;-76
2022/08/22 06:55:25;;;;;;;13.63;10.18;;;;;;;17.67;81.26;101587.78;4999591;28;20539;-77
2022/08/22 06:58:05;;;;;;;13.68;9.55;;;;;;;17.68;80.97;101585.00;4999085;28;20113;-77
2022/08/22 07:00:33;;;;;;;17.10;9.32;;;;;;;17.74;81.19;101583.59;5016446;28;20170;-76
2022/08/22 07:03:17;;;;;;;15.73;10.23;;;;;;;17.79;80.83;101586.56;5008307;28;20065;-77
2022/08/22 07:05:42;;;;;;;14.32;9.63;;;;;;;17.87;80.71;101594.50;5007723;28;20053;-76
2022/08/22 07:08:19;;;;;;;18.13;9.80;;;;;;;17.91;80.90;101595.84;5014283;28;20025;-76
2022/08/22 07:10:55;;;;;;;14.88;9.35;;;;;;;17.98;80.81;101596.84;5011926;28;20055;-76
2022/08/22 07:13:24;;;;;;;14.35;10.00;;;;;;;17.99;80.71;101593.25;4999197;28;20474;-76
2022/08/22 07:15:55;;;;;;;14.82;10.23;;;;;;;17.97;81.65;101595.22;5009602;28;20033;-76
2022/08/22 07:18:23;;;;;;;15.13;9.98;;;;;;;17.98;80.91;101591.59;4990927;28;20036;-76
2022/08/22 07:20:51;;;;;;;;;;;;;;;18.23;79.92;101591.75;5019037;28;20104;-77
2022/08/22 07:23:30;;;;;;;14.75;10.23;;;;;;;18.19;80.37;101590.44;5009542;28;20369;-76
2022/08/22 07:26:30;;;;;;;14.80;9.75;;;;;;;18.24;79.85;101601.28;5016063;28;20054;-76
2022/08/22 07:28:58;;;;;;;14.10;10.18;;;;;;;18.27;80.14;101593.06;4999275;28;20056;-77
2022/08/22 07:31:38;;;;;;;14.18;10.60;;;;;;;18.31;80.41;101591.78;4988800;28;20080;-76
2022/08/22 07:34:52;;;;;;;14.20;10.10;;;;;;;18.40;79.53;101585.56;4991957;28;20377;-76
2022/08/22 07:37:49;;;;;;;16.92;10.77;;;;;;;18.43;79.37;101593.16;4970769;28;20038;-76
2022/08/22 07:40:41;;;;;;;16.42;11.10;;;;;;;18.49;79.02;101584.66;5004377;28;20458;-76
2022/08/22 07:43:30;;;;;;;15.20;10.82;;;;;;;18.54;79.08;101582.38;5020291;28;20274;-76
2022/08/22 07:45:58;;;;;;;;;;;;;;;18.65;78.69;101578.63;4990027;28;20034;-76
2022/08/22 07:48:35;;;;;;;15.55;10.75;;;;;;;18.56;78.38;101575.13;4999898;28;19910;-76
2022/08/22 07:51:17;;;;;;;17.38;11.13;;;;;;;18.65;78.09;101583.06;5007470;28;20041;-76
2022/08/22 07:53:48;;;;;;;20.95;12.50;;;;;;;18.62;78.71;101588.63;5001248;28;20021;-76
2022/08/22 07:56:28;;;;;;;18.02;12.32;;;;;;;18.67;78.25;101588.97;4999979;28;20026;-76
2022/08/22 07:59:16;;;;;;;15.15;11.73;;;;;;;18.75;77.67;101578.50;4999210;28;20052;-76
2022/08/22 08:01:50;;;;;;;16.13;12.35;;;;;;;18.71;78.09;101577.22;5002578;28;20434;-76
2022/08/22 08:04:23;;;;;;;14.88;9.88;;;;;;;18.60;77.20;101580.09;5009284;28;20469;-76
2022/08/22 08:06:56;;;;;;;14.32;9.55;;;;;;;18.67;76.68;101576.69;4994584;28;20390;-76
2022/08/22 08:09:25;;;;;;;14.85;9.55;;;;;;;18.65;76.70;101562.03;5001323;28;20026;-76
2022/08/22 08:11:52;;;;;;;15.77;9.38;;;;;;;18.67;77.62;101570.59;5006460;28;20026;-75
2022/08/22 08:14:20;;;;;;;15.23;9.80;;;;;;;18.64;76.97;101565.63;5003798;28;20022;-76
2022/08/22 08:17:04;;;;;;;;;;;;;;;18.85;76.94;101563.44;5009010;28;20032;-76
2022/08/22 08:19:34;;;;;;;15.15;10.00;;;;;;;18.76;76.38;101564.41;5016283;28;19923;-76
2022/08/22 08:22:00;;;;;;;14.85;9.70;;;;;;;18.82;76.38;101555.88;5001424;28;20036;-76
2022/08/22 08:24:29;;;;;;;17.25;10.40;;;;;;;18.87;76.41;101555.38;5019238;28;20026;-76
2022/08/22 08:29:58;;;;;;;16.23;9.93;;;;;;;19.08;75.88;101559.19;5012486;28;20296;-76
2022/08/22 08:32:28;;;;;;;15.10;10.60;;;;;;;19.19;75.43;101559.84;5014314;28;20053;-77
2022/08/22 08:34:55;;;;;;;14.30;10.52;;;;;;;19.26;75.09;101560.84;4996864;28;20034;-76
2022/08/22 08:37:33;;;;;;;15.82;10.63;;;;;;;19.28;75.06;101556.25;4994710;28;20026;-77
2022/08/22 08:39:59;;;;;;;;;;;;;;;19.45;75.22;101557.91;4996850;28;20054;-77
2022/08/22 08:46:28;;;;;;;18.70;10.50;;;;;;;19.46;75.10;101551.66;5005355;28;20217;-76
2022/08/22 08:49:16;;;;;;;13.20;9.30;;;;;;;19.57;74.37;101553.94;4946952;28;20083;-76
2022/08/22 08:52:10;;;;;;;15.65;10.02;;;;;;;19.61;74.23;101550.03;4870964;29;20044;-76
2022/08/22 08:55:03;;;;;;;17.67;10.75;;;;;;;19.73;73.63;101552.31;4881680;29;20057;-76
2022/08/22 08:57:50;;;;;;;15.35;9.75;;;;;;;19.82;73.33;101546.03;4872218;29;20053;-76
2022/08/22 09:00:49;;;;;;;16.27;10.27;;;;;;;19.86;73.83;101552.59;4874894;29;20051;-76
2022/08/22 09:03:36;;;;;;;15.93;10.20;;;;;;;19.99;72.76;101544.16;4875578;29;20045;-76
2022/08/22 09:06:26;;;;;;;15.90;9.50;;;;;;;20.13;71.88;101544.31;4868604;29;20051;-77
2022/08/22 09:09:14;;;;;;;14.25;9.82;;;;;;;20.16;71.37;101543.94;4871674;29;20060;-77
2022/08/22 09:12:07;;;;;;;16.10;10.60;;;;;;;20.24;71.50;101539.63;4872579;29;21130;-76
2022/08/22 09:14:55;;;;;;;14.98;9.45;;;;;;;20.46;71.34;101533.63;4875829;29;20032;-76
2022/08/22 09:17:36;;;;;;;13.77;9.05;;;;;;;20.65;69.44;101532.41;4875302;29;20320;-77
2022/08/22 09:20:19;;;;;;;13.43;8.00;;;;;;;20.65;69.28;101533.22;4873125;29;20071;-77
2022/08/22 09:23:21;;;;;;;12.55;6.32;;;;;;;20.88;67.80;101542.97;4872382;29;20056;-77
2022/08/22 09:26:04;;;;;;;12.50;5.75;;;;;;;21.16;66.84;101530.88;4892092;29;20163;-77
2022/08/22 09:28:47;;;;;;;13.32;7.85;;;;;;;21.10;65.10;101534.19;4950494;28;20050;-77
2022/08/22 09:31:27;;;;;;;11.88;7.15;;;;;;;21.38;66.12;101534.50;4990327;28;20022;-76
2022/08/22 09:34:24;;;;;;;12.05;7.60;;;;;;;21.44;66.07;101522.41;4997019;28;20029;-76
2022/08/22 09:37:22;;;;;;;12.75;7.55;;;;;;;21.61;66.11;101523.88;4991143;28;20030;-76
2022/08/22 09:40:06;;;;;;;13.60;7.38;;;;;;;21.72;64.93;101526.06;4993969;28;20042;-75
2022/08/22 09:42:43;;;;;;;12.38;5.68;;;;;;;21.81;63.64;101523.38;5000406;28;20072;-74
2022/08/22 09:45:35;;;;;;;11.27;5.80;;;;;;;21.85;63.41;101529.91;5003392;28;21235;-77
2022/08/22 09:48:26;;;;;;;10.63;5.35;;;;;;;21.93;62.83;101524.53;5002134;28;20080;-75
2022/08/22 09:51:15;;;;;;;10.23;4.40;;;;;;;21.94;60.77;101526.19;4970952;28;20045;-75
2022/08/22 09:54:03;;;;;;;11.95;4.78;;;;;;;21.92;60.06;101536.13;5004694;28;20060;-76
2022/08/22 09:56:50;;;;;;;8.38;3.60;;;;;;;21.98;60.20;101515.06;4997711;28;20021;-75
2022/08/22 09:59:39;;;;;;;12.35;3.80;;;;;;;22.07;59.13;101518.41;4996253;28;20124;-75
2022/08/22 10:02:25;;;;;;;8.45;3.30;;;;;;;22.05;56.32;101514.34;4998039;28;20336;-77
2022/08/22 10:05:06;;;;;;;11.13;3.75;;;;;;;22.21;57.15;101525.56;5001770;28;20026;-76
2022/08/22 10:07:40;;;;;;;11.25;3.47;;;;;;;22.32;56.00;101515.53;5003174;28;20430;-78
2022/08/22 10:10:19;;;;;;;9.00;3.38;;;;;;;22.27;56.95;101508.97;4995639;28;20528;-77
2022/08/22 10:12:57;;;;;;;8.13;3.30;;;;;;;22.27;55.18;101508.97;5010473;28;20500;-76
2022/08/22 10:15:29;;;;;;;10.23;3.60;;;;;;;22.31;56.00;101513.84;5009891;28;20124;-74
2022/08/22 10:18:27;;;;;;;9.57;3.33;;;;;;;22.40;54.90;101507.47;5008593;28;20044;-75
2022/08/22 10:21:11;;;;;;;10.15;3.50;;;;;;;22.41;56.76;101504.63;4984126;28;20080;-76
2022/08/22 10:23:53;;;;;;;9.93;3.50;;;;;;;22.42;55.85;101508.94;4998441;28;20058;-76
2022/08/22 10:26:52;;;;;;;11.57;3.55;;;;;;;22.50;55.80;101502.69;4998908;28;20080;-76
2022/08/22 10:30:05;;;;;;;10.60;3.50;;;;;;;22.62;55.76;101505.69;5003548;28;20185;-76
2022/08/22 10:33:00;;;;;;;11.18;3.90;;;;;;;22.57;54.71;101503.59;4977807;28;20085;-76
2022/08/22 10:35:30;;;;;;;9.60;3.30;;;;;;;22.69;54.67;101499.44;4957909;28;20484;-76
2022/08/22 10:38:22;;;;;;;11.27;3.10;;;;;;;22.84;55.00;101501.22;4998524;28;20461;-76
2022/08/22 10:41:22;;;;;;;9.65;3.30;;;;;;;22.97;55.05;101498.72;4995196;28;20038;-77
2022/08/22 10:44:20;;;;;;;8.45;3.40;;;;;;;22.92;52.68;101501.91;4996890;28;20100;-76
2022/08/22 10:46:58;;;;;;;9.48;3.17;;;;;;;23.01;54.00;101494.69;4957117;28;20470;-76
2022/08/22 10:49:32;;;;;;;8.75;3.30;;;;;;;23.08;52.69;101500.84;5013560;28;20022;-76
2022/08/22 10:52:11;;;;;;;10.05;4.10;;;;;;;23.15;52.22;101501.72;5006643;28;20120;-77
2022/08/22 10:54:49;;;;;;;8.05;2.80;;;;;;;23.16;52.41;101497.22;4988867;28;20030;-80
2022/08/22 10:58:05;;;;;;;9.10;3.20;;;;;;;23.29;52.87;101498.16;4986287;28;20070;-77
2022/08/22 11:00:47;;;;;;;8.53;3.97;;;;;;;23.14;50.30;101500.06;4966510;28;20050;-76
2022/08/22 11:03:31;;;;;;;10.65;3.83;;;;;;;23.27;52.57;101484.28;4997704;28;20523;-77
2022/08/22 11:06:05;;;;;;;8.90;3.95;;;;;;;23.26;52.14;101485.31;4993279;28;20022;-76
2022/08/22 11:08:39;;;;;;;8.55;3.40;;;;;;;23.44;52.16;101479.53;4999544;28;20030;-76
2022/08/22 11:11:15;;;;;;;9.73;4.43;;;;;;;23.27;52.15;101484.28;5007853;28;20108;-77
2022/08/22 11:13:47;;;;;;;9.63;3.70;;;;;;;23.36;52.02;101482.31;4999152;28;20031;-76
2022/08/22 11:16:15;;;;;;;10.48;4.25;;;;;;;23.48;52.34;101488.72;4998853;28;20109;-76
2022/08/22 11:18:43;;;;;;;;;;;;;;;23.63;53.76;101487.81;4993953;28;20036;-76
2022/08/22 11:21:27;;;;;;;8.98;3.83;;;;;;;23.83;51.68;101478.97;5004758;28;19917;-77
2022/08/22 11:24:09;;;;;;;9.25;3.88;;;;;;;24.11;51.48;101480.72;4996297;28;20057;-76
2022/08/22 11:26:38;;;;;;;10.48;3.92;;;;;;;24.07;50.22;101479.47;4998742;28;20034;-76
2022/08/22 11:29:03;;;;;;;8.95;3.58;;;;;;;24.15;50.84;101476.66;4995993;28;20026;-76
2022/08/22 11:32:10;;;;;;;8.32;3.65;;;;;;;24.13;50.90;101468.06;4987761;28;20113;-76
2022/08/22 11:34:56;;;;;;;8.70;3.80;;;;;;;24.18;49.74;101468.28;4976738;28;20073;-76
2022/08/22 11:37:37;;;;;;;9.25;3.55;;;;;;;24.16;49.45;101472.97;4992372;28;20360;-76
2022/08/22 11:40:09;;;;;;;11.75;3.63;;;;;;;24.22;49.16;101472.19;5005232;28;20486;-76
2022/08/22 11:43:04;;;;;;;11.15;4.10;;;;;;;24.24;49.93;101470.13;5004836;28;20034;-76
2022/08/22 11:45:42;;;;;;;9.02;3.08;;;;;;;24.23;48.95;101471.16;4976406;28;20053;-77
2022/08/22 11:48:45;;;;;;;8.55;3.10;;;;;;;24.22;48.72;101471.38;4995045;28;20022;-77
2022/08/22 11:51:35;;;;;;;7.90;2.88;;;;;;;24.36;50.71;101455.31;4993947;28;20549;-75
2022/08/22 11:54:16;;;;;;;9.80;3.00;;;;;;;24.41;49.34;101459.22;4998195;28;20026;-75
2022/08/22 11:57:00;;;;;;;11.23;2.88;;;;;;;24.35;48.35;101456.34;4994167;28;20034;-75
2022/08/22 11:59:51;;;;;;;7.55;2.60;;;;;;;24.55;45.80;101455.56;4991912;28;20080;-75
2022/08/22 12:02:25;;;;;;;6.90;2.33;;;;;;;24.57;44.39;101454.34;4979432;28;20103;-76
2022/08/22 12:04:56;;;;;;;7.35;2.60;;;;;;;24.49;45.32;101448.44;5004970;28;20042;-76
2022/08/22 12:07:28;;;;;;;9.48;2.50;;;;;;;24.59;44.53;101457.59;5009765;28;20030;-75
2022/08/22 12:09:54;;;;;;;6.80;2.25;;;;;;;24.72;44.51;101451.50;5009517;28;20485;-76
2022/08/22 12:12:59;;;;;;;7.53;2.80;;;;;;;24.73;44.87;101463.75;5006930;28;20029;-78
2022/08/22 12:15:42;;;;;;;9.27;2.80;;;;;;;24.89;44.75;101457.22;4940064;29;20127;-80
2022/08/22 12:18:16;;;;;;;7.70;2.88;;;;;;;24.81;42.90;101460.88;4934729;29;20020;-79
2022/08/22 12:20:56;;;;;;;8.23;2.70;;;;;;;24.85;42.91;101451.50;4929679;29;20652;-79
2022/08/22 12:23:58;;;;;;;6.90;2.35;;;;;;;24.83;45.25;101458.88;4930080;29;20035;-79
2022/08/22 12:26:23;;;;;;;8.80;2.78;;;;;;;24.66;43.04;101452.31;4913776;29;20095;-77
2022/08/22 12:28:54;;;;;;;6.50;2.67;;;;;;;24.68;43.59;101450.28;4913331;29;20064;-80
2022/08/22 12:31:29;;;;;;;9.60;2.90;;;;;;;24.68;44.76;101455.56;4940903;29;20083;-79
2022/08/22 12:34:03;;;;;;;9.75;2.72;;;;;;;24.61;44.31;101449.47;4930260;29;20043;-77